Time;durP1;ratioP1;P1;durP2;ratioP2;P2;SDS_P1;SDS_P2;PMS_P1;PMS_P2;Temp;Humidity;BMP_temperature;BMP_pressure;BME280_temperature;BME280_humidity;BME280_pressure;Samples;Min_cycle;Max_cycle;Signal;HPM_P1;HPM_P2
2022/04/18 00:01:22;;;;;;;0.00;0.00;;;;;;;-145.06;100.00;63404.56;10329669;28;20037;-66
2022/04/18 00:06:23;;;;;;;0.00;0.00;;;;;;;-145.06;100.00;63404.56;10329240;28;20033;-65
2022/04/18 00:11:23;;;;;;;0.00;0.00;;;;;;;-145.06;100.00;63404.56;10358739;22;20041;-63
2022/04/18 00:16:24;;;;;;;0.00;0.00;;;;;;;-145.06;100.00;63404.56;10418314;28;20076;-63
2022/04/18 00:21:24;;;;;;;0.00;0.00;;;;;;;-145.06;100.00;63404.56;10418534;28;20056;-62
2022/04/18 00:26:24;;;;;;;0.00;0.00;;;;;;;-145.06;100.00;63404.56;10414291;28;20145;-63
2022/04/18 00:31:25;;;;;;;0.00;0.00;;;;;;;-145.06;100.00;63404.56;10409612;28;20022;-63
2022/04/18 00:36:25;;;;;;;0.00;0.00;;;;;;;-145.06;100.00;63404.56;10433947;28;20282;-62
2022/04/18 00:41:25;;;;;;;0.10;0.10;;;;;;;-145.06;100.00;63404.56;10450132;28;20074;-63
2022/04/18 00:46:26;;;;;;;0.00;0.00;;;;;;;-145.06;100.00;63404.56;10449390;28;20052;-62
2022/04/18 00:51:27;;;;;;;0.00;0.00;;;;;;;-145.06;100.00;63404.56;10449880;28;20025;-63
2022/04/18 00:56:27;;;;;;;0.10;0.10;;;;;;;-145.06;100.00;63404.56;10428329;28;20100;-63
2022/04/18 01:01:28;;;;;;;0.00;0.00;;;;;;;-145.06;100.00;63404.56;10414669;28;20108;-62
2022/04/18 01:06:28;;;;;;;0.00;0.00;;;;;;;-145.06;100.00;63404.56;10424953;28;20043;-63
2022/04/18 01:11:28;;;;;;;0.00;0.00;;;;;;;-145.06;100.00;63404.56;10420617;28;20268;-63
2022/04/18 01:16:29;;;;;;;0.00;0.00;;;;;;;-145.06;100.00;63404.56;10389341;28;20360;-63
2022/04/18 01:21:29;;;;;;;0.00;0.00;;;;;;;-145.06;100.00;63404.56;10408077;28;20112;-63
2022/04/18 01:31:48;;;;;;;0.08;0.08;;;;;;;-145.06;100.00;63404.56;10446980;28;20028;-63
2022/04/18 01:36:48;;;;;;;0.10;0.10;;;;;;;-145.06;100.00;63404.56;10442595;28;20465;-63
2022/04/18 01:41:49;;;;;;;0.10;0.10;;;;;;;-145.06;100.00;63404.56;10448684;28;20033;-63
2022/04/18 01:46:50;;;;;;;0.10;0.10;;;;;;;-145.06;100.00;63404.56;10447562;28;20534;-63
2022/04/18 01:51:50;;;;;;;0.08;0.08;;;;;;;-145.06;100.00;63404.56;10448118;28;20021;-63
2022/04/18 01:56:51;;;;;;;0.10;0.10;;;;;;;-145.06;100.00;63404.56;10425023;28;20018;-62
2022/04/18 02:01:51;;;;;;;0.10;0.10;;;;;;;-145.06;100.00;63404.56;10407653;28;20120;-63
2022/04/18 02:06:51;;;;;;;0.00;0.00;;;;;;;-145.06;100.00;63404.56;10406502;28;20025;-62
2022/04/18 02:11:51;;;;;;;0.00;0.00;;;;;;;-145.06;100.00;63404.56;10420975;28;20033;-63
2022/04/18 02:16:52;;;;;;;0.15;0.15;;;;;;;-145.06;100.00;63404.56;10437431;28;20021;-63
2022/04/18 02:21:53;;;;;;;0.00;0.00;;;;;;;-145.06;100.00;63404.56;10455338;28;20029;-63
2022/04/18 02:26:53;;;;;;;0.10;0.10;;;;;;;-145.06;100.00;63404.56;10431761;28;20033;-62
2022/04/18 02:37:12;;;;;;;0.10;0.10;;;;;;;-145.06;100.00;63404.56;10452841;28;20021;-62
2022/04/18 02:42:13;;;;;;;0.20;0.20;;;;;;;-145.06;100.00;63404.56;10455098;28;20020;-63
2022/04/18 02:47:13;;;;;;;0.10;0.10;;;;;;;-145.06;100.00;63404.56;10452837;28;20285;-62
2022/04/18 02:52:13;;;;;;;0.10;0.10;;;;;;;-145.06;100.00;63404.56;10450518;28;20151;-62
2022/04/18 02:57:14;;;;;;;0.10;0.10;;;;;;;-145.06;100.00;63404.56;10429378;28;20025;-61
2022/04/18 03:02:14;;;;;;;0.00;0.00;;;;;;;-145.06;100.00;63404.56;10413455;28;20022;-62
2022/04/18 03:07:14;;;;;;;0.10;0.10;;;;;;;-145.06;100.00;63404.56;10412415;28;20326;-62
2022/04/18 03:12:15;;;;;;;0.10;0.10;;;;;;;-145.06;100.00;63404.56;10412425;28;20021;-60
2022/04/18 03:17:16;;;;;;;0.10;0.10;;;;;;;-145.06;100.00;63404.56;10412236;28;20403;-62
2022/04/18 03:22:17;;;;;;;0.00;0.00;;;;;;;-145.06;100.00;63404.56;10414366;28;20028;-62
2022/04/18 03:27:20;;;;;;;0.00;0.00;;;;;;;-145.06;100.00;63404.56;10418206;28;20026;-63
2022/04/18 03:32:20;;;;;;;0.10;0.10;;;;;;;-145.06;100.00;63404.56;10411855;28;20264;-63
2022/04/18 03:42:39;;;;;;;0.10;0.10;;;;;;;-145.06;100.00;63404.56;10409896;28;20037;-63
2022/04/18 03:47:40;;;;;;;0.20;0.20;;;;;;;-145.06;100.00;63404.56;10448669;28;20021;-62
2022/04/18 03:52:40;;;;;;;0.15;0.15;;;;;;;-145.06;100.00;63404.56;10452522;28;20260;-62
2022/04/18 03:57:40;;;;;;;0.03;0.03;;;;;;;-145.06;100.00;63404.56;10438216;28;20319;-62
2022/04/18 04:02:43;;;;;;;0.10;0.10;;;;;;;-145.06;100.00;63404.56;10452299;28;20071;-63
2022/04/18 04:07:43;;;;;;;0.10;0.10;;;;;;;-145.06;100.00;63404.56;10433266;28;20491;-63
2022/04/18 04:12:43;;;;;;;0.10;0.10;;;;;;;-145.06;100.00;63404.56;10451114;28;20028;-62
2022/04/18 04:17:44;;;;;;;0.10;0.10;;;;;;;-145.06;100.00;63404.56;10450805;28;20298;-62
2022/04/18 04:22:47;;;;;;;0.08;0.08;;;;;;;-145.06;100.00;63404.56;10451192;28;20086;-62
2022/04/18 04:27:48;;;;;;;0.00;0.00;;;;;;;-145.06;100.00;63404.56;10420069;28;20026;-63
2022/04/18 04:32:50;;;;;;;0.10;0.10;;;;;;;-145.06;100.00;63404.56;10428526;28;20391;-61
2022/04/18 04:37:51;;;;;;;0.00;0.00;;;;;;;-145.06;100.00;63404.56;10408977;28;20486;-62
2022/04/18 04:42:51;;;;;;;0.08;0.08;;;;;;;-145.06;100.00;63404.56;10410129;28;20025;-62
2022/04/18 04:47:51;;;;;;;0.00;0.00;;;;;;;-145.06;100.00;63404.56;10408520;28;20416;-62
2022/04/18 04:52:52;;;;;;;0.00;0.00;;;;;;;-145.06;100.00;63404.56;10409618;28;20424;-63
2022/04/18 04:57:52;;;;;;;0.00;0.00;;;;;;;-145.06;100.00;63404.56;10414065;28;20087;-63
2022/04/18 05:02:55;;;;;;;0.03;0.03;;;;;;;-145.06;100.00;63404.56;10430153;28;20283;-64
2022/04/18 05:07:55;;;;;;;0.10;0.10;;;;;;;-145.06;100.00;63404.56;10436386;28;20032;-64
2022/04/18 05:12:56;;;;;;;0.10;0.10;;;;;;;-145.06;100.00;63404.56;10408365;28;20373;-63
2022/04/18 05:17:56;;;;;;;0.10;0.10;;;;;;;-145.06;100.00;63404.56;10407509;28;20030;-64
2022/04/18 05:22:56;;;;;;;0.10;0.10;;;;;;;-145.06;100.00;63404.56;10408647;28;20025;-64
2022/04/18 05:27:57;;;;;;;0.10;0.10;;;;;;;-145.06;100.00;63404.56;10417052;28;20105;-64
2022/04/18 05:32:57;;;;;;;0.10;0.10;;;;;;;-145.06;100.00;63404.56;10407660;28;20029;-64
2022/04/18 05:37:58;;;;;;;0.10;0.10;;;;;;;-145.06;100.00;63404.56;10407619;28;20152;-64
2022/04/18 05:43:01;;;;;;;0.10;0.10;;;;;;;-145.06;100.00;63404.56;10400587;28;20026;-64
2022/04/18 05:48:01;;;;;;;0.10;0.10;;;;;;;-145.06;100.00;63404.56;10415638;28;20025;-64
2022/04/18 05:53:02;;;;;;;0.07;0.07;;;;;;;-145.06;100.00;63404.56;10416369;28;20472;-62
2022/04/18 05:58:03;;;;;;;0.00;0.00;;;;;;;-145.06;100.00;63404.56;10406330;28;20033;-64
2022/04/18 06:03:03;;;;;;;0.10;0.10;;;;;;;-145.06;100.00;63404.56;10415970;28;20033;-62
2022/04/18 06:08:04;;;;;;;0.00;0.00;;;;;;;-145.06;100.00;63404.56;10414724;28;20029;-63
2022/04/18 06:13:04;;;;;;;0.10;0.10;;;;;;;-145.06;100.00;63404.56;10404890;22;20555;-66
2022/04/18 06:18:05;;;;;;;0.00;0.00;;;;;;;-145.06;100.00;63404.56;10336136;28;20047;-65
2022/04/18 06:23:05;;;;;;;0.00;0.00;;;;;;;-145.06;100.00;63404.56;10333361;28;20018;-65
2022/04/18 06:28:05;;;;;;;0.10;0.10;;;;;;;-145.06;100.00;63404.56;10341304;28;20105;-65
2022/04/18 06:33:12;;;;;;;0.10;0.10;;;;;;;-145.06;100.00;63404.56;10339071;28;20667;-66
2022/04/18 06:38:13;;;;;;;0.10;0.10;;;;;;;-145.06;100.00;63404.56;10332829;28;20057;-65
2022/04/18 06:43:15;;;;;;;0.10;0.10;;;;;;;-145.06;100.00;63404.56;10332585;28;20497;-65
2022/04/18 06:48:16;;;;;;;0.10;0.10;;;;;;;-145.06;100.00;63404.56;10331462;28;20026;-66
2022/04/18 06:53:16;;;;;;;0.10;0.10;;;;;;;-145.06;100.00;63404.56;10331935;28;20457;-66
2022/04/18 06:58:17;;;;;;;0.00;0.00;;;;;;;-145.06;100.00;63404.56;10338650;28;20021;-66
2022/04/18 07:03:17;;;;;;;0.10;0.10;;;;;;;-145.06;100.00;63404.56;10331788;28;20019;-65
2022/04/18 07:08:18;;;;;;;0.10;0.10;;;;;;;-145.06;100.00;63404.56;10331494;28;20488;-66
2022/04/18 07:13:18;;;;;;;0.00;0.00;;;;;;;-145.06;100.00;63404.56;10331980;28;20030;-66
2022/04/18 07:18:18;;;;;;;0.10;0.10;;;;;;;-145.06;100.00;63404.56;10330609;28;20022;-66
2022/04/18 07:23:19;;;;;;;0.10;0.10;;;;;;;-145.06;100.00;63404.56;10331691;28;20030;-66
2022/04/18 07:28:19;;;;;;;0.00;0.00;;;;;;;-145.06;100.00;63404.56;10337982;28;20350;-66
2022/04/18 07:33:19;;;;;;;0.10;0.10;;;;;;;-145.06;100.00;63404.56;10349435;28;20497;-66
2022/04/18 07:43:38;;;;;;;0.10;0.10;;;;;;;-145.06;100.00;63404.56;10370215;28;20033;-66
2022/04/18 07:48:39;;;;;;;0.00;0.00;;;;;;;-145.06;100.00;63404.56;10369757;28;20022;-66
2022/04/18 07:53:39;;;;;;;0.00;0.00;;;;;;;-145.06;100.00;63404.56;10370054;28;20080;-66
2022/04/18 07:58:40;;;;;;;0.10;0.10;;;;;;;-145.06;100.00;63404.56;10335195;28;20026;-66
2022/04/18 08:03:40;;;;;;;0.10;0.10;;;;;;;-145.06;100.00;63404.56;10329435;28;20053;-66
2022/04/18 08:08:40;;;;;;;0.10;0.10;;;;;;;-145.06;100.00;63404.56;10327977;28;20023;-66
2022/04/18 08:13:45;;;;;;;0.03;0.03;;;;;;;-145.06;100.00;63404.56;10366589;28;20021;-66
2022/04/18 08:18:46;;;;;;;0.00;0.00;;;;;;;-145.06;100.00;63404.56;10368833;28;20025;-66
2022/04/18 08:23:48;;;;;;;0.10;0.10;;;;;;;-145.06;100.00;63404.56;10368933;28;20032;-66
2022/04/18 08:28:48;;;;;;;0.10;0.10;;;;;;;-145.06;100.00;63404.56;10331110;28;20032;-66
2022/04/18 08:33:49;;;;;;;0.05;0.05;;;;;;;-145.06;100.00;63404.56;10328512;28;20023;-66
2022/04/18 08:38:49;;;;;;;0.10;0.10;;;;;;;-145.06;100.00;63404.56;10327849;28;20196;-66
2022/04/18 08:43:51;;;;;;;0.10;0.10;;;;;;;-145.06;100.00;63404.56;10327188;28;20508;-67
2022/04/18 08:54:13;;;;;;;0.10;0.10;;;;;;;-145.06;100.00;63404.56;10364819;28;20022;-67
2022/04/18 08:59:13;;;;;;;;;;;;;;;-145.06;100.00;63404.56;10350779;28;20057;-67
2022/04/18 09:04:13;;;;;;;0.10;0.10;;;;;;;-145.06;100.00;63404.56;10336597;28;20379;-67
2022/04/18 09:09:14;;;;;;;0.10;0.10;;;;;;;-145.06;100.00;63404.56;10330196;28;20381;-67
2022/04/18 09:14:18;;;;;;;0.10;0.10;;;;;;;-145.06;100.00;63404.56;10326037;28;20054;-67
2022/04/18 09:19:19;;;;;;;0.10;0.10;;;;;;;-145.06;100.00;63404.56;10333112;28;20029;-67
2022/04/18 09:24:38;;;;;;;0.10;0.10;;;;;;;-145.06;100.00;63404.56;10361700;28;20477;-67
2022/04/18 09:29:39;;;;;;;0.10;0.10;;;;;;;-145.06;100.00;63404.56;10332028;28;20396;-67
2022/04/18 09:34:40;;;;;;;0.10;0.10;;;;;;;-145.06;100.00;63404.56;10326169;28;20474;-67
2022/04/18 09:39:50;;;;;;;0.10;0.10;;;;;;;-145.06;100.00;63404.56;10325689;28;20080;-68
2022/04/18 09:44:51;;;;;;;0.10;0.10;;;;;;;-145.06;100.00;63404.56;10325713;28;20026;-68
2022/04/18 09:49:51;;;;;;;0.10;0.10;;;;;;;-145.06;100.00;63404.56;10308465;28;20122;-68
2022/04/18 09:54:56;;;;;;;0.10;0.10;;;;;;;-145.06;100.00;63404.56;10331526;28;20014;-68
2022/04/18 09:59:59;;;;;;;0.10;0.10;;;;;;;-145.06;100.00;63404.56;10327640;28;20268;-68
2022/04/18 10:05:01;;;;;;;0.10;0.10;;;;;;;-145.06;100.00;63404.56;10346527;28;20097;-67
2022/04/18 10:10:02;;;;;;;0.10;0.10;;;;;;;-145.06;100.00;63404.56;10365975;28;20112;-67
2022/04/18 10:15:03;;;;;;;0.10;0.10;;;;;;;-145.06;100.00;63404.56;10365943;28;20029;-68
2022/04/18 10:20:37;;;;;;;0.10;0.10;;;;;;;-145.06;100.00;63404.56;10366478;28;20033;-68
2022/04/18 10:26:08;;;;;;;0.10;0.10;;;;;;;-145.06;100.00;63404.56;10353766;28;20532;-68
2022/04/18 10:31:18;;;;;;;0.10;0.10;;;;;;;-145.06;100.00;63404.56;10330879;28;20056;-68
2022/04/18 10:36:27;;;;;;;0.10;0.10;;;;;;;-145.06;100.00;63404.56;10361808;28;20352;-68
2022/04/18 10:41:35;;;;;;;0.10;0.10;;;;;;;-145.06;100.00;63404.56;10371672;28;20053;-68
2022/04/18 10:46:42;;;;;;;0.10;0.10;;;;;;;-145.06;100.00;63404.56;10333046;28;20081;-68
2022/04/18 10:51:45;;;;;;;0.10;0.10;;;;;;;-145.06;100.00;63404.56;10355410;28;20051;-68
2022/04/18 10:57:11;;;;;;;0.10;0.10;;;;;;;-145.06;100.00;63404.56;10344772;28;20532;-68
2022/04/18 11:02:37;;;;;;;0.10;0.10;;;;;;;-145.06;100.00;63404.56;10342485;28;20029;-68
2022/04/18 11:07:43;;;;;;;0.10;0.10;;;;;;;-145.06;100.00;63404.56;10372102;28;20084;-68
2022/04/18 11:12:44;;;;;;;0.10;0.10;;;;;;;-145.06;100.00;63404.56;10372403;28;20485;-68
2022/04/18 11:17:44;;;;;;;0.10;0.10;;;;;;;-145.06;100.00;63404.56;10347160;28;20022;-68
2022/04/18 11:23:20;;;;;;;0.10;0.10;;;;;;;-145.06;100.00;63404.56;10331973;28;20030;-68
2022/04/18 11:28:21;;;;;;;0.10;0.10;;;;;;;-145.06;100.00;63404.56;10339539;28;20066;-67
2022/04/18 11:33:21;;;;;;;0.10;0.10;;;;;;;-145.06;100.00;63404.56;10314771;28;20503;-69
2022/04/18 11:38:25;;;;;;;0.10;0.10;;;;;;;-145.06;100.00;63404.56;10330107;28;20062;-69
2022/04/18 11:43:25;;;;;;;0.10;0.10;;;;;;;-145.06;100.00;63404.56;10330251;28;20138;-69
2022/04/18 11:48:26;;;;;;;0.10;0.10;;;;;;;-145.06;100.00;63404.56;10338112;28;20057;-69
2022/04/18 11:53:35;;;;;;;0.10;0.10;;;;;;;-145.06;100.00;63404.56;10331891;28;20030;-69
2022/04/18 11:58:36;;;;;;;0.10;0.10;;;;;;;-145.06;100.00;63404.56;10340566;28;20019;-68
2022/04/18 12:08:56;;;;;;;0.10;0.10;;;;;;;-145.06;100.00;63404.56;10328514;28;20125;-67
2022/04/18 12:13:59;;;;;;;0.10;0.10;;;;;;;-145.06;100.00;63404.56;10379863;22;20304;-65
2022/04/18 12:19:00;;;;;;;0.10;0.10;;;;;;;-145.06;100.00;63404.56;10452587;28;20037;-65
2022/04/18 12:24:00;;;;;;;0.10;0.10;;;;;;;-145.06;100.00;63404.56;10445692;28;20122;-65
2022/04/18 12:29:06;;;;;;;0.10;0.10;;;;;;;-145.06;100.00;63404.56;10425740;28;20021;-65
2022/04/18 12:34:16;;;;;;;0.10;0.10;;;;;;;-145.06;100.00;63404.56;10433577;28;20017;-65
2022/04/18 12:39:21;;;;;;;0.10;0.10;;;;;;;-145.06;100.00;63404.56;10419965;28;20384;-65
2022/04/18 12:44:21;;;;;;;0.00;0.00;;;;;;;-145.06;100.00;63404.56;10430155;28;20203;-65
2022/04/18 12:49:22;;;;;;;0.10;0.10;;;;;;;-145.06;100.00;63404.56;10418973;28;20095;-65
2022/04/18 12:54:24;;;;;;;0.10;0.10;;;;;;;-145.06;100.00;63404.56;10440381;28;20395;-65
2022/04/18 12:59:26;;;;;;;0.10;0.10;;;;;;;-145.06;100.00;63404.56;10452011;28;20021;-64
2022/04/18 13:04:27;;;;;;;0.10;0.10;;;;;;;-145.06;100.00;63404.56;10445778;28;20017;-64
2022/04/18 13:09:28;;;;;;;0.10;0.10;;;;;;;-145.06;100.00;63404.56;10451958;28;20033;-65
2022/04/18 13:14:29;;;;;;;0.10;0.10;;;;;;;-145.06;100.00;63404.56;10423539;28;20490;-65
2022/04/18 13:19:29;;;;;;;0.10;0.10;;;;;;;-145.06;100.00;63404.56;10426931;28;20028;-64
2022/04/18 13:24:30;;;;;;;0.10;0.10;;;;;;;-145.06;100.00;63404.56;10449124;28;20033;-64
2022/04/18 13:29:30;;;;;;;0.10;0.10;;;;;;;-145.06;100.00;63404.56;10428750;28;20021;-65
2022/04/18 13:34:30;;;;;;;0.10;0.10;;;;;;;-145.06;100.00;63404.56;10430781;28;20730;-66
2022/04/18 13:39:31;;;;;;;0.10;0.10;;;;;;;-145.06;100.00;63404.56;10433729;28;20025;-64
2022/04/18 13:44:31;;;;;;;0.00;0.00;;;;;;;-145.06;100.00;63404.56;10428749;28;20036;-64
2022/04/18 13:49:32;;;;;;;0.10;0.10;;;;;;;-145.06;100.00;63404.56;10423700;28;20462;-63
2022/04/18 13:54:32;;;;;;;0.10;0.10;;;;;;;-145.06;100.00;63404.56;10442275;28;20048;-64
2022/04/18 13:59:32;;;;;;;0.10;0.10;;;;;;;-145.06;100.00;63404.56;10419685;28;20076;-64
2022/04/18 14:04:33;;;;;;;0.10;0.10;;;;;;;-145.06;100.00;63404.56;10430487;28;20053;-64
2022/04/18 14:09:33;;;;;;;0.00;0.00;;;;;;;-145.06;100.00;63404.56;10446564;28;20029;-64
2022/04/18 14:25:11;;;;;;;0.10;0.10;;;;;;;-145.06;100.00;63404.56;10442117;28;20309;-63
2022/04/18 14:30:15;;;;;;;0.10;0.10;;;;;;;-145.06;100.00;63404.56;10424702;28;20388;-64
2022/04/18 14:35:16;;;;;;;;;;;;;;;-145.06;100.00;63404.56;10447150;28;20096;-64
2022/04/18 14:40:16;;;;;;;0.10;0.10;;;;;;;-145.06;100.00;63404.56;10434036;28;19915;-65
2022/04/18 14:45:17;;;;;;;0.10;0.10;;;;;;;-145.06;100.00;63404.56;10441805;28;20109;-64
2022/04/18 14:50:17;;;;;;;0.10;0.10;;;;;;;-145.06;100.00;63404.56;10436142;28;20476;-64
2022/04/18 14:55:17;;;;;;;0.10;0.10;;;;;;;-145.06;100.00;63404.56;10430852;28;20013;-64
2022/04/18 15:00:18;;;;;;;0.10;0.10;;;;;;;-145.06;100.00;63404.56;10439736;28;20483;-64
2022/04/18 15:05:19;;;;;;;0.08;0.08;;;;;;;-145.06;100.00;63404.56;10422549;28;20025;-65
2022/04/18 15:10:19;;;;;;;0.10;0.10;;;;;;;-145.06;100.00;63404.56;10415339;28;20416;-65
2022/04/18 15:15:22;;;;;;;0.10;0.10;;;;;;;-145.06;100.00;63404.56;10443597;28;20025;-64
2022/04/18 15:20:23;;;;;;;0.10;0.10;;;;;;;-145.06;100.00;63404.56;10456056;28;20028;-65
2022/04/18 15:25:23;;;;;;;0.10;0.10;;;;;;;-145.06;100.00;63404.56;10456323;28;20395;-65
2022/04/18 15:35:42;;;;;;;0.10;0.10;;;;;;;-145.06;100.00;63404.56;10449583;28;20024;-64
2022/04/18 15:40:42;;;;;;;0.10;0.10;;;;;;;-145.06;100.00;63404.56;10455147;28;20024;-65
2022/04/18 15:45:43;;;;;;;0.10;0.10;;;;;;;-145.06;100.00;63404.56;10444423;28;20083;-65
2022/04/18 15:50:44;;;;;;;0.10;0.10;;;;;;;-145.06;100.00;63404.56;10413574;28;20112;-64
2022/04/18 15:55:44;;;;;;;0.03;0.03;;;;;;;-145.06;100.00;63404.56;10413788;28;20468;-64
2022/04/18 16:00:44;;;;;;;0.10;0.10;;;;;;;-145.06;100.00;63404.56;10413955;28;20108;-64
2022/04/18 16:05:45;;;;;;;0.00;0.00;;;;;;;-145.06;100.00;63404.56;10445310;28;20497;-65
2022/04/18 16:10:45;;;;;;;0.10;0.10;;;;;;;-145.06;100.00;63404.56;10437867;28;20464;-65
2022/04/18 16:15:45;;;;;;;0.10;0.10;;;;;;;-145.06;100.00;63404.56;10412824;28;20128;-65
2022/04/18 16:20:46;;;;;;;0.10;0.10;;;;;;;-145.06;100.00;63404.56;10445259;28;20036;-65
2022/04/18 16:25:46;;;;;;;0.10;0.10;;;;;;;-145.06;100.00;63404.56;10453131;28;20427;-65
2022/04/18 16:36:06;;;;;;;0.10;0.10;;;;;;;-145.06;100.00;63404.56;10426711;28;20030;-66
2022/04/18 16:46:29;;;;;;;0.10;0.10;;;;;;;-145.06;100.00;63404.56;10438913;28;20025;-65
2022/04/18 16:51:34;;;;;;;0.10;0.10;;;;;;;-145.06;100.00;63404.56;10425337;28;20501;-66
2022/04/18 16:56:36;;;;;;;0.10;0.10;;;;;;;-145.06;100.00;63404.56;10450432;28;20388;-66
2022/04/18 17:01:36;;;;;;;0.10;0.10;;;;;;;-145.06;100.00;63404.56;10450354;28;20051;-65
2022/04/18 17:06:36;;;;;;;0.10;0.10;;;;;;;-145.06;100.00;63404.56;10451959;28;20149;-65
2022/04/18 17:11:36;;;;;;;0.10;0.10;;;;;;;-145.06;100.00;63404.56;10451981;28;20021;-65
2022/04/18 17:16:37;;;;;;;0.10;0.10;;;;;;;-145.06;100.00;63404.56;10418144;28;20194;-66
2022/04/18 17:21:37;;;;;;;0.10;0.10;;;;;;;-145.06;100.00;63404.56;10415830;28;20056;-65
2022/04/18 17:26:38;;;;;;;0.10;0.10;;;;;;;-145.06;100.00;63404.56;10410350;28;20037;-66
2022/04/18 17:31:38;;;;;;;0.10;0.10;;;;;;;-145.06;100.00;63404.56;10426244;28;20032;-66
2022/04/18 17:36:38;;;;;;;0.10;0.10;;;;;;;-145.06;100.00;63404.56;10438143;28;20022;-66
2022/04/18 17:41:39;;;;;;;0.10;0.10;;;;;;;-145.06;100.00;63404.56;10455035;28;20021;-66
2022/04/18 17:46:40;;;;;;;0.10;0.10;;;;;;;-145.06;100.00;63404.56;10437591;28;20033;-66
2022/04/18 17:51:40;;;;;;;0.10;0.10;;;;;;;-145.06;100.00;63404.56;10453951;28;20247;-65
2022/04/18 17:56:40;;;;;;;0.10;0.10;;;;;;;-145.06;100.00;63404.56;10464565;28;20123;-66
2022/04/18 18:01:41;;;;;;;0.10;0.10;;;;;;;-145.06;100.00;63404.56;10430839;28;20037;-65
2022/04/18 18:06:41;;;;;;;0.10;0.10;;;;;;;-145.06;100.00;63404.56;10422969;28;20030;-66
2022/04/18 18:11:41;;;;;;;0.10;0.10;;;;;;;-145.06;100.00;63404.56;10433826;28;20442;-66
2022/04/18 18:16:42;;;;;;;0.10;0.10;;;;;;;-145.06;100.00;63404.56;10403759;22;20053;-68
2022/04/18 18:21:42;;;;;;;0.10;0.10;;;;;;;-145.06;100.00;63404.56;10348620;28;20108;-68
2022/04/18 18:26:42;;;;;;;0.10;0.10;;;;;;;-145.06;100.00;63404.56;10356800;28;20426;-68
2022/04/18 18:31:43;;;;;;;0.10;0.10;;;;;;;-145.06;100.00;63404.56;10341218;28;20033;-68
2022/04/18 18:36:44;;;;;;;0.10;0.10;;;;;;;-145.06;100.00;63404.56;10338930;28;20015;-68
2022/04/18 18:41:44;;;;;;;0.10;0.10;;;;;;;-145.06;100.00;63404.56;10338239;28;20018;-68
2022/04/18 18:46:45;;;;;;;0.10;0.10;;;;;;;-145.06;100.00;63404.56;10337919;28;20022;-68
2022/04/18 18:57:05;;;;;;;0.10;0.10;;;;;;;-145.06;100.00;63404.56;10338665;28;20026;-67
2022/04/18 19:02:05;;;;;;;0.10;0.10;;;;;;;-145.06;100.00;63404.56;10334637;28;20018;-67
2022/04/18 19:07:05;;;;;;;0.10;0.10;;;;;;;-145.06;100.00;63404.56;10331090;28;20533;-68
2022/04/18 19:12:06;;;;;;;0.10;0.10;;;;;;;-145.06;100.00;63404.56;10331370;28;20767;-67
2022/04/18 19:27:44;;;;;;;0.10;0.10;;;;;;;-145.06;100.00;63404.56;10335241;28;20493;-67
2022/04/18 19:32:45;;;;;;;0.10;0.10;;;;;;;-145.06;100.00;63404.56;10330677;28;20058;-68
2022/04/18 19:37:45;;;;;;;0.00;0.00;;;;;;;-145.06;100.00;63404.56;10329914;28;20037;-67
2022/04/18 19:42:47;;;;;;;0.10;0.10;;;;;;;-145.06;100.00;63404.56;10361985;28;20096;-67
2022/04/18 19:47:47;;;;;;;0.00;0.00;;;;;;;-145.06;100.00;63404.56;10369702;28;20602;-67
2022/04/18 19:52:48;;;;;;;0.00;0.00;;;;;;;-145.06;100.00;63404.56;10369716;28;20025;-67
2022/04/18 19:57:48;;;;;;;0.10;0.10;;;;;;;-145.06;100.00;63404.56;10352744;28;20124;-67
2022/04/18 20:02:48;;;;;;;0.00;0.00;;;;;;;-145.06;100.00;63404.56;10369842;28;20045;-67
2022/04/18 20:07:48;;;;;;;0.10;0.10;;;;;;;-145.06;100.00;63404.56;10368321;28;20052;-67
2022/04/18 20:12:49;;;;;;;0.10;0.10;;;;;;;-145.06;100.00;63404.56;10351675;28;20036;-67
2022/04/18 20:17:49;;;;;;;0.00;0.00;;;;;;;-145.06;100.00;63404.56;10335579;28;20378;-67
2022/04/18 20:22:49;;;;;;;0.00;0.00;;;;;;;-145.06;100.00;63404.56;10331431;28;20033;-67
2022/04/18 20:27:50;;;;;;;0.10;0.10;;;;;;;-145.06;100.00;63404.56;10333525;28;20053;-67
2022/04/18 20:32:50;;;;;;;0.00;0.00;;;;;;;-145.06;100.00;63404.56;10327706;28;20014;-67
2022/04/18 20:37:54;;;;;;;0.00;0.00;;;;;;;-145.06;100.00;63404.56;10328627;28;20555;-67
2022/04/18 20:42:54;;;;;;;0.10;0.10;;;;;;;-145.06;100.00;63404.56;10328173;28;20033;-67
2022/04/18 20:47:55;;;;;;;0.00;0.00;;;;;;;-145.06;100.00;63404.56;10326666;28;20311;-67
2022/04/18 20:58:34;;;;;;;0.10;0.10;;;;;;;-145.06;100.00;63404.56;10362498;28;20101;-68
2022/04/18 21:03:35;;;;;;;0.00;0.00;;;;;;;-145.06;100.00;63404.56;10368689;28;20026;-68
2022/04/18 21:08:36;;;;;;;0.00;0.00;;;;;;;-145.06;100.00;63404.56;10366682;28;20022;-68
2022/04/18 21:13:37;;;;;;;0.00;0.00;;;;;;;-145.06;100.00;63404.56;10349208;28;20048;-68
2022/04/18 21:18:38;;;;;;;0.00;0.00;;;;;;;-145.06;100.00;63404.56;10355437;28;20041;-68
2022/04/18 21:23:38;;;;;;;0.00;0.00;;;;;;;-145.06;100.00;63404.56;10325592;28;20025;-68
2022/04/18 21:28:41;;;;;;;0.08;0.08;;;;;;;-145.06;100.00;63404.56;10325650;28;20385;-68
2022/04/18 21:33:42;;;;;;;0.00;0.00;;;;;;;-145.06;100.00;63404.56;10367376;28;20420;-68
2022/04/18 21:38:43;;;;;;;0.00;0.00;;;;;;;-145.06;100.00;63404.56;10365945;28;20030;-68
2022/04/18 21:43:43;;;;;;;0.00;0.00;;;;;;;-145.06;100.00;63404.56;10366743;28;20033;-68
2022/04/18 21:48:47;;;;;;;0.00;0.00;;;;;;;-145.06;100.00;63404.56;10338982;28;20080;-68
2022/04/18 21:53:48;;;;;;;0.00;0.00;;;;;;;-145.06;100.00;63404.56;10312748;28;20068;-68
2022/04/18 21:58:48;;;;;;;0.00;0.00;;;;;;;-145.06;100.00;63404.56;10326771;28;20535;-68
2022/04/18 22:03:48;;;;;;;0.00;0.00;;;;;;;-145.06;100.00;63404.56;10326259;28;20026;-68
2022/04/18 22:08:49;;;;;;;0.00;0.00;;;;;;;-145.06;100.00;63404.56;10325119;28;20034;-68
2022/04/18 22:13:49;;;;;;;0.00;0.00;;;;;;;-145.06;100.00;63404.56;10326260;28;20046;-68
2022/04/18 22:29:27;;;;;;;0.00;0.00;;;;;;;-145.06;100.00;63404.56;10335497;28;20030;-67
2022/04/18 22:34:27;;;;;;;0.00;0.00;;;;;;;-145.06;100.00;63404.56;10333459;28;20022;-67
2022/04/18 22:39:27;;;;;;;0.00;0.00;;;;;;;-145.06;100.00;63404.56;10332507;28;20272;-67
2022/04/18 22:44:28;;;;;;;0.00;0.00;;;;;;;-145.06;100.00;63404.56;10334501;28;20292;-67
2022/04/18 22:49:29;;;;;;;0.00;0.00;;;;;;;-145.06;100.00;63404.56;10333327;28;20067;-68
2022/04/18 22:54:31;;;;;;;0.00;0.00;;;;;;;-145.06;100.00;63404.56;10330404;28;20827;-67
2022/04/18 22:59:33;;;;;;;0.00;0.00;;;;;;;-145.06;100.00;63404.56;10332704;28;20022;-67
2022/04/18 23:04:36;;;;;;;0.00;0.00;;;;;;;-145.06;100.00;63404.56;10332406;28;20105;-67
2022/04/18 23:09:37;;;;;;;0.00;0.00;;;;;;;-145.06;100.00;63404.56;10331541;28;20023;-67
2022/04/18 23:14:38;;;;;;;0.00;0.00;;;;;;;-145.06;100.00;63404.56;10331652;28;20010;-67
2022/04/18 23:19:39;;;;;;;0.00;0.00;;;;;;;-145.06;100.00;63404.56;10331440;28;20038;-67
2022/04/18 23:24:42;;;;;;;0.00;0.00;;;;;;;-145.06;100.00;63404.56;10335400;28;20033;-67
2022/04/18 23:29:42;;;;;;;0.00;0.00;;;;;;;-145.06;100.00;63404.56;10358400;28;20022;-67
2022/04/18 23:34:42;;;;;;;0.00;0.00;;;;;;;-145.06;100.00;63404.56;10371509;28;20014;-67
2022/04/18 23:45:02;;;;;;;0.00;0.00;;;;;;;-145.06;100.00;63404.56;10371939;28;20026;-67
2022/04/18 23:55:23;;;;;;;0.00;0.00;;;;;;;-145.06;100.00;63404.56;10351857;28;20022;-67
